Charlton Depot, Massachusetts
Current Conditions -  °F | °C
As of 2:54 PM on Saturday 25 Oct 2014 (Local Time) from KORH Reporting Station
Clear Clear  
Wind Chill: 59°   Ceiling: Unl
Heat Index: 59°   Visibility: 10mi
Dew Point: 39°   Wind: 12mph
Humidity: 48%   Direction: 280°W
Pressure: 29.64"   Gusts: NA
Location:  42.17°N, 71.98°W
Report Text: KORH 251854Z 28010KT 10SM CLR 15/04 A2964 RMK AO2 SLP040 T01500039
Loading
Personal Weather Stations






























Interactive Weather Map
Tropical Storm Tracking
New forecast layout! Learn more

10-Day Weather Forecast

Advertisements
Track Severe Weather on mobile